Tiempo atmosférico en la estación meteorológica de Alicante/Alacant, Alacant/Alicante (81 m.)



Fecha
DESCASC
Temp. máxima en grados centígrados (hora)
DESCASC
Temp. mínima en grados centígrados (hora)
DESCASC
Temp. media en grados centígrados
DESCASC
Racha de viento máxima en m/sg (hora)
DESCASC
Velocidad máxima media en intervalos de 10 minutos(hora)
DESCASC
Precipitaciones diarias en mm
DESCASC
Precipitaciones de 00:00 a 06:00 en mm
DESCASC
Precipitaciones de 06:00 a 12:00 en mm
DESCASC
Precipitaciones de 12:00 a 18:00 en mm
DESCASC
Precipitaciones de 18:00 a 24:00 en mm
DESCASC
18-01-2018 16.9 (14:00) 6.8 (07:50) 11.8 6.67 (14:20) 3.61 (15:30) 0 0 0 0 0
17-01-2018 22.5 (13:30) 9.2 (06:30) 15.8 7.78 (09:00) 3.33 (07:50) 0 0 0 0 0
16-01-2018 21.2 (15:20) 6.2 (01:40) 13.7 10.28 (17:00) 4.72 (16:50) 0 0 0 0 0
15-01-2018 15.1 (14:20) 6.2 (23:20) 10.7 10.28 (00:40) 4.17 (00:30) 3.4 3.4 0 0 0
14-01-2018 16.6 (14:40) 5.8 (00:00) 11.2 9.17 (05:40) 4.17 (11:10) 0 0 0 0 0
13-01-2018 14.6 (13:30) 4.4 (00:00) 9.5 4.44 (14:40) 2.5 (14:40) 0 0 0 0 0
12-01-2018 17.3 (15:30) 7.4 (00:00) 12.3 8.61 (03:30) 3.89 (00:20) 0 0 0 0 0
11-01-2018 15.6 (14:50) 10.2 (00:00) 12.9 17.22 (11:20) 7.78 (12:30) 0 0 0 0 0
10-01-2018 17.7 (16:00) 8.2 (00:00) 13 11.39 (17:20) 5 (13:20) 3 2.4 0.6 0 0
09-01-2018 16.4 (13:30) 3.3 (00:00) 9.8 7.22 (15:30) 3.89 (15:30) 0 0 0 0 0
08-01-2018 15 (14:20) 3.5 (00:00) 9.3 5.28 (15:50) 2.78 (14:00) 0 0 0 0 0
07-01-2018 14.7 (14:20) 4.9 (00:00) 9.8 6.94 (00:30) 3.06 (00:30) 0 0 0 0 0
06-01-2018 15.7 (13:30) 6.9 (00:00) 11.3 9.44 (23:40) 4.17 (23:30) 0 0 0 0 0
05-01-2018 21.3 (14:50) 8.5 (00:00) 14.9 8.06 (00:40) 4.17 (17:10) 0 0 0 0 0
04-01-2018 24.1 (14:30) 13.4 (08:50) 18.8 12.78 (23:10) 6.39 (23:00) 0 0 0 0 0
03-01-2018 24.4 (13:30) 12.8 (00:00) 18.6 12.5 (19:00) 5.56 (08:20) 0 0 0 0 0
02-01-2018 20.5 (14:20) 12.6 (00:00) 16.6 15.83 (05:10) 7.22 (05:20) 0 0 0 0 0
01-01-2018 21.5 (15:20) 9.4 (00:00) 15.4 14.17 (04:30) 6.94 (04:30) 0 0 0 0 0
31-12-2017 18.7 (14:50) 7.9 (00:00) 13.3 16.39 (23:30) 6.39 (23:20) 0 0 0 0 0
30-12-2017 24 (15:10) 11 (00:00) 17.5 9.17 (11:20) 4.17 (12:30) 0 0 0 0 0
29-12-2017 21.5 (14:10) 14.4 (00:00) 17.9 14.17 (14:40) 5.83 (13:50) 0 0 0 0 0
28-12-2017 22.6 (15:00) 10.7 (00:00) 16.7 12.5 (05:50) 5.28 (14:30) 0 0 0 0 0
27-12-2017 17.5 (13:30) 10.5 (00:00) 14 18.61 (10:30) 7.5 (10:30) 0 0 0 0 0
26-12-2017 19.4 (14:00) 7.2 (00:00) 13.3 9.72 (14:00) 4.44 (14:30) 0 0 0 0 0
25-12-2017 18.2 (15:20) 5.1 (00:00) 11.7 6.11 (15:10) 2.78 (13:30) 0 0 0 0 0
24-12-2017 17 (15:20) 6.4 (00:00) 11.7 3.89 (13:10) 2.5 (13:10) 0 0 0 0 0
23-12-2017 17 (15:40) 5.1 (00:00) 11 6.11 (12:10) 3.61 (12:10) 0 0 0 0 0
22-12-2017 21.2 (14:10) 4.7 (00:00) 13 7.5 (15:00) 5 (15:20) 0 0 0 0 0
21-12-2017 16.7 (15:00) 8.1 (00:00) 12.4 6.39 (11:30) 3.33 (11:30) 0 0 0 0 0

Gráficas

Temp. máximas Temp. mínimas Temp. medias Precipitaciones Rachas de viento máximas Velocidades máximas media en intervalos de 10 minutos

Datos horarios

Fecha y hora oficial Temperatura (ºC) Velocidad del viento (km/h) Dirección del viento Racha (km/h) Dirección de racha Precipitación (mm) Presión (hPa) Tendencia (hPa) Humedad (%)
2018-01-19 23:00:00 8.1 3 Norte 6 Oeste 0 1012.2 1.4 74
2018-01-19 22:00:00 8.8 4 Oeste 9 Norte 0 1011.5 1.7 75
2018-01-19 21:00:00 9.5 4 Norte 8 Norte 0 1011.4 2 76
2018-01-19 20:00:00 10.7 2 Norte 7 Norte 0 1010.8 1.9 79
2018-01-19 19:00:00 12.4 0 Calma 7 Sudoeste 0 1009.8 0.8 73
2018-01-19 18:00:00 14.9 6 Sur 11 Sur 0 1009.4 0.4 65
2018-01-19 17:00:00 16.2 8 Sur 11 Sur 0 1008.9 -0.5 54
2018-01-19 16:00:00 16.9 6 Sur 9 Sur 0 1009 -0.8 48
2018-01-19 15:00:00 16.5 3 Oeste 11 Oeste 0 1009 -2 51
2018-01-19 14:00:00 15.7 4 Oeste 10 Sudoeste 0 1009.4 -1.9 60
2018-01-19 13:00:00 15.3 6 Sudoeste 12 Sudoeste 0 1009.8 -1.2 68
2018-01-19 12:00:00 14.4 4 Oeste 7 Oeste 0 1011 1.1 72
2018-01-19 11:00:00 12.3 4 Noroeste 8 Noroeste 0 1011.3 2.3 75
2018-01-19 10:00:00 9.8 3 Noroeste 8 Noroeste 0 1011 2.7 79
2018-01-19 09:00:00 8.8 0 Calma 4 Noroeste 0 1009.9 1.7 85
2018-01-19 08:00:00 8.9 3 Noroeste 5 Noroeste 0 1009 0.1 83
2018-01-19 07:00:00 9.1 0 Calma 10 Norte 0 1008.3 -0.6 81
2018-01-19 06:00:00 9.3 3 Norte 8 Noroeste 0 1008.2 -0.2 85
2018-01-19 05:00:00 9.9 5 Norte 8 Norte 0 1008.9 -0.8 85
2018-01-19 04:00:00 10 3 Sudoeste 9 Sur 0 1008.9 -1.8 83
2018-01-19 03:00:00 9.9 4 Norte 9 Noroeste 0 1008.4 -2.5 83
2018-01-19 02:00:00 9.6 3 Oeste 9 Noroeste 0 1009.7 -1.7 85
2018-01-19 01:00:00 9.5 2 Oeste 6 Noroeste 0 1010.7 -0.2 83
2018-01-19 00:00:00 10 4 Norte 8 Noroeste 0 1010.9 -1.1 82
2018-01-18 23:00:00 10 0 Calma 5 Norte 0 1011.4 -0.6 84
2018-01-18 22:00:00 10.6 0 Calma 10 Nordeste 0 1010.9 -1 80
2018-01-18 21:00:00 11.2 4 Noroeste 6 Noroeste 0 1012 -0.7 85
2018-01-18 20:00:00 11.7 2 Sur 9 Nordeste 0 1012 -0.6 81
2018-01-18 19:00:00 12.6 4 Nordeste 11 Nordeste 0 1011.9 -0.4 81
2018-01-18 18:00:00 13.6 5 Nordeste 12 Sudeste 0 1012.7 0.2 77
2018-01-18 17:00:00 14.6 6 Este 19 Sudeste 0 1012.6 -0.6 71
2018-01-18 16:00:00 15.8 10 Este 23 Sudeste 0 1012.3 -2.3 64
2018-01-18 15:00:00 16.7 10 Este 24 Sudeste 0 1012.5 -3 59
2018-01-18 14:00:00 16.9 9 Este 17 Nordeste 0 1013.2 -2.8 52
2018-01-18 13:00:00 16.7 8 Este 18 Nordeste 0 1014.6 -1.5 54
2018-01-18 12:00:00 15.9 9 Este 19 Nordeste 0 1015.5 -0.2 52
2018-01-18 11:00:00 13.8 4 Nordeste 8 Nordeste 0 1016 0.4 53
2018-01-18 10:00:00 10.2 3 Norte 8 Nordeste 0 1016.1 0.6 70
2018-01-18 09:00:00 7.7 5 Norte 10 Norte 0 1015.7 0.5 78
2018-01-18 08:00:00 6.8 5 Norte 10 Noroeste 0 1015.6 0.2 86
2018-01-18 07:00:00 7.6 6 Norte 10 Noroeste 0 1015.5 -0.4 84
2018-01-18 06:00:00 7.2 5 Norte 8 Norte 0 1015.2 -0.5 85
2018-01-18 05:00:00 8.3 5 Norte 9 Norte 0 1015.4 -0.6 83
2018-01-18 04:00:00 8.5 3 Norte 6 Norte 0 1015.9 -0.3 83
2018-01-18 03:00:00 9.6 4 Norte 10 Norte 0 1015.7 -0.4 81
2018-01-18 02:00:00 10 6 Norte 9 Norte 0 1016 0.2 76
2018-01-18 01:00:00 10 4 Nordeste 7 Nordeste 0 1016.2 0.8 72
2018-01-18 00:00:00 10.2 4 Norte 9 Norte 0 1016.1 1.2 69
2018-01-17 23:00:00 9.8 4 Norte 9 Norte 0 1015.8 1.5 66
2018-01-17 22:00:00 9.9 3 Norte 6 Noroeste 0 1015.4 1.9 66
2018-01-17 21:00:00 10.9 3 Noroeste 7 Norte 0 1014.9 2.1 62
2018-01-17 20:00:00 12.3 4 Norte 6 Norte 0 1014.3 2.1 61
2018-01-17 19:00:00 14.1 0 Calma 8 Este 0 1013.5 2 55
2018-01-17 18:00:00 16.5 4 Este 12 Este 0 1012.8 1.9 43
2018-01-17 17:00:00 18.1 7 Sudeste 20 Sudeste 0 1012.2 1 38
2018-01-17 16:00:00 19.6 11 Sudeste 21 Sudeste 0 1011.5 -0.1 35
2018-01-17 15:00:00 21.4 10 Sudeste 19 Sudeste 0 1010.9 -1.2 31
2018-01-17 14:00:00 21.5 9 Este 19 Nordeste 0 1011.2 -1.2 29
2018-01-17 13:00:00 21.9 6 Noroeste 15 Noroeste 0 1011.6 0.1 28
2018-01-17 12:00:00 20.7 6 Sudoeste 14 Oeste 0 1012.1 1.3 32
2018-01-17 11:00:00 17.6 9 Oeste 17 Oeste 0 1012.4 1.4 42
2018-01-17 10:00:00 14.5 6 Noroeste 21 Oeste 0 1011.5 0.7 50
2018-01-17 09:00:00 12.6 9 Oeste 28 Oeste 0 1010.8 0 52
2018-01-17 08:00:00 11 12 Oeste 21 Noroeste 0 1011 -0.1 65
2018-01-17 07:00:00 9.9 8 Oeste 15 Oeste 0 1010.8 -0.6 64
2018-01-17 06:00:00 9.7 6 Oeste 12 Oeste 0 1010.8 -0.5 67
2018-01-17 05:00:00 10.7 6 Noroeste 15 Oeste 0 1011.1 -0.5 63
2018-01-17 04:00:00 11.3 6 Oeste 18 Noroeste 0 1011.4 -0.5 60
2018-01-17 03:00:00 10.2 5 Oeste 13 Noroeste 0 1011.3 -1.1 65
2018-01-17 02:00:00 10 4 Oeste 11 Noroeste 0 1011.6 -0.9 67
2018-01-17 01:00:00 10.9 5 Oeste 13 Oeste 0 1011.9 -0.7 65
2018-01-17 00:00:00 13 4 Oeste 16 Norte 0 1012.4 -0.3 59
2018-01-16 23:00:00 13.5 3 Sudoeste 16 Noroeste 0 1012.5 -0.1 57
2018-01-16 22:00:00 13.5 4 Noroeste 16 Noroeste 0 1012.6 0 59
2018-01-16 21:00:00 14.9 3 Sudoeste 19 Noroeste 0 1012.7 0.2 54
2018-01-16 20:00:00 14.3 4 Oeste 9 Oeste 0 1012.6 0 58
2018-01-16 19:00:00 16.7 4 Sudoeste 20 Oeste 0 1012.6 -0.5 49
2018-01-16 18:00:00 18.6 9 Noroeste 33 Noroeste 0 1012.5 -0.9 44
2018-01-16 17:00:00 19.5 16 Noroeste 37 Noroeste 0 1012.6 -1.8 40
2018-01-16 16:00:00 20.8 13 Oeste 30 Oeste 0 1013.1 -2.3 36
2018-01-16 15:00:00 20.9 13 Oeste 25 Sudoeste 0 1013.4 -2.9 35
2018-01-16 14:00:00 20.3 10 Sudoeste 21 Noroeste 0 1014.4 -2.5 33
2018-01-16 13:00:00 18.6 10 Oeste 24 Oeste 0 1015.4 -1.4 36
2018-01-16 12:00:00 17.1 9 Oeste 26 Oeste 0 1016.3 -0.3 36
2018-01-16 11:00:00 14.9 13 Oeste 33 Oeste 0 1016.9 0.6 37
2018-01-16 10:00:00 13 10 Noroeste 26 Noroeste 0 1016.8 0.6 43
2018-01-16 09:00:00 10.8 8 Oeste 21 Noroeste 0 1016.6 0.3 51
2018-01-16 08:00:00 8.5 8 Oeste 16 Sudoeste 0 1016.3 -0.2 59
2018-01-16 07:00:00 9.5 6 Oeste 21 Oeste 0 1016.2 -0.4 57
2018-01-16 06:00:00 8.8 8 Oeste 21 Oeste 0 1016.3 -1 59
2018-01-16 05:00:00 9.2 10 Oeste 34 Oeste 0 1016.5 -1.1 55
2018-01-16 04:00:00 8 9 Sudoeste 21 Oeste 0 1016.6 -1.5 61
2018-01-16 03:00:00 7.7 4 Oeste 21 Sudoeste 0 1017.3 -1.5 66
2018-01-16 02:00:00 6.7 7 Sudoeste 13 Oeste 0 1017.6 -1 72
2018-01-16 01:00:00 6.8 4 Sudoeste 15 Noroeste 0 1018.1 -0.3 74
2018-01-16 00:00:00 7.1 8 Oeste 13 Oeste 0 1018.8 0.8 71
2018-01-15 23:00:00 6.3 5 Oeste 8 Oeste 0 1018.6 1 86
2018-01-15 22:00:00 7 4 Oeste 9 Oeste 0 1018.4 1.6 86
2018-01-15 21:00:00 7.8 3 Oeste 5 Noroeste 0 1018 1.6 83
2018-01-15 20:00:00 9 3 Oeste 5 Oeste 0 1017.6 1.6 84
2018-01-15 19:00:00 10.4 0 Calma 8 Sur 0 1016.8 1.4 77
2018-01-15 18:00:00 12.1 3 Sudeste 12 Sudeste 0 1016.4 1.2 69
2018-01-15 17:00:00 13.4 6 Sudeste 14 Sudeste 0 1016 0.8 64
2018-01-15 16:00:00 14.7 9 Sudeste 14 Sur 0 1015.4 -0.1 58
2018-01-15 15:00:00 14.5 6 Sudeste 16 Sudeste 0 1015.2 -1 54
2018-01-15 14:00:00 14.9 5 Este 14 Nordeste 0 1015.2 -0.6 53
2018-01-15 13:00:00 14 5 Este 10 Este 0 1015.5 1.1 52
2018-01-15 12:00:00 12.2 5 Norte 12 Nordeste 0 1016.2 2.6 60
2018-01-15 11:00:00 11.4 7 Norte 17 Noroeste 0 1015.8 3.1 61
2018-01-15 10:00:00 9.8 4 Noroeste 11 Norte 0 1014.4 2.2 72
2018-01-15 09:00:00 8.6 3 Nordeste 8 Norte 0 1013.6 1.9 82
2018-01-15 08:00:00 8.2 2 Noroeste 9 Noroeste 0 1012.7 1.2 90
2018-01-15 07:00:00 8.3 5 Oeste 14 Noroeste 0 1012.2 0.6 88
2018-01-15 06:00:00 8.2 5 Oeste 12 Oeste 0 1011.7 0.4 90
2018-01-15 05:00:00 8.5 3 Oeste 9 Oeste 0 1011.5 0.5 91
2018-01-15 04:00:00 8.4 5 Noroeste 10 Noroeste 0 1011.6 0.4 91
2018-01-15 03:00:00 8.6 2 Oeste 7 Sudoeste 0.4 1011.3 0.9 91
2018-01-15 02:00:00 9.2 4 Sudoeste 10 Sudeste 1.8 1011 1.2 88
2018-01-15 01:00:00 9.9 6 Este 37 Este 1.2 1011.2 2 84
2018-01-15 00:00:00 11.7 10 Nordeste 21 Nordeste 0 1010.4 1.4 60
2018-01-14 23:00:00 10.9 6 Nordeste 11 Norte 0 1009.8 1.2 52
2018-01-14 22:00:00 11.1 6 Nordeste 14 Norte 0 1009.2 1.1 50
2018-01-14 21:00:00 11.2 8 Noroeste 15 Norte 0 1009 1.3 50
2018-01-14 20:00:00 11.6 3 Norte 8 Norte 0 1008.6 1.1 51
2018-01-14 19:00:00 12.3 2 Sudoeste 9 Sudoeste 0 1008.1 1 49
2018-01-14 18:00:00 13.3 4 Oeste 11 Oeste 0 1007.7 0.8 45
2018-01-14 17:00:00 14 6 Oeste 20 Noroeste 0 1007.5 -0.1 41
2018-01-14 16:00:00 15 9 Oeste 26 Oeste 0 1007.1 -1.6 38
2018-01-14 15:00:00 15.9 9 Noroeste 24 Oeste 0 1006.9 -2.5 38
2018-01-14 14:00:00 14.9 6 Oeste 26 Noroeste 0 1007.6 -2 40
2018-01-14 13:00:00 14.6 10 Oeste 31 Noroeste 0 1008.7 -0.7 41
2018-01-14 12:00:00 14.2 11 Oeste 33 Noroeste 0 1009.4 0 44
2018-01-14 11:00:00 12.8 15 Oeste 29 Oeste 0 1009.6 0.9 47
2018-01-14 10:00:00 10 5 Sudoeste 12 Oeste 0 1009.4 1.2 57
2018-01-14 09:00:00 8.8 5 Oeste 18 Noroeste 0 1009.4 1.3 60
2018-01-14 08:00:00 8.2 4 Sur 12 Norte 0 1008.7 0.8 62
2018-01-14 07:00:00 9.6 8 Noroeste 27 Noroeste 0 1008.2 0.2 57
2018-01-14 06:00:00 9.8 4 Noroeste 33 Noroeste 0 1008.1 0.2 54
2018-01-14 05:00:00 10 9 Oeste 33 Oeste 0 1007.9 0.1 54
2018-01-14 04:00:00 10.7 10 Noroeste 32 Noroeste 0 1008 -0.4 52
2018-01-14 03:00:00 9.4 7 Oeste 19 Oeste 0 1007.9 -0.8 55
2018-01-14 02:00:00 8.3 5 Noroeste 17 Oeste 0 1007.8 -0.9 66
2018-01-14 01:00:00 6 3 Sudoeste 5 Oeste 0 1008.4 -0.3 89
2018-01-14 00:00:00 7 3 Noroeste 13 Noroeste 0 1008.7 0.1 87
2018-01-13 23:00:00 7.4 2 Noroeste 5 Noroeste 0 1008.7 0 85
2018-01-13 22:00:00 8.7 3 Noroeste 6 Noroeste 0 1008.7 -0.2 81
2018-01-13 21:00:00 10.1 4 Noroeste 6 Nordeste 0 1008.6 -0.1 78
2018-01-13 20:00:00 10.5 3 Noroeste 6 Sur 0 1008.7 0.3 79
2018-01-13 19:00:00 10.6 4 Sur 8 Sudoeste 0 1008.9 0.4 76
2018-01-13 18:00:00 11.9 5 Sur 11 Sudeste 0 1008.7 0.7 71
2018-01-13 17:00:00 13.4 6 Sur 10 Sur 0 1008.4 -0.8 65
2018-01-13 16:00:00 13.3 6 Sur 14 Sur 0 1008.5 -2.2 65
2018-01-13 15:00:00 13.8 8 Sur 16 Sur 0 1008 -3.5 61
2018-01-13 14:00:00 14.6 4 Sur 14 Oeste 0 1009.2 -2.5 56
2018-01-13 13:00:00 13.7 6 Oeste 14 Oeste 0 1010.7 -0.9 56
2018-01-13 12:00:00 12.6 3 Sudeste 4 Norte 0 1011.5 0.2 57
2018-01-13 11:00:00 10.1 3 Norte 5 Noroeste 0 1011.7 0.3 60
2018-01-13 10:00:00 6.8 2 Noroeste 5 Oeste 0 1011.6 0.4 66
2018-01-13 09:00:00 4.9 3 Noroeste 6 Norte 0 1011.3 0.2 68
2018-01-13 08:00:00 4.5 4 Noroeste 8 Noroeste 0 1011.4 -0.1 67
2018-01-13 07:00:00 4.5 2 Oeste 7 Norte 0 1011.2 -0.8 67
2018-01-13 06:00:00 4.6 6 Norte 8 Norte 0 1011.1 -1 67
2018-01-13 05:00:00 5 3 Noroeste 8 Oeste 0 1011.5 -1.1 64
2018-01-13 04:00:00 5.8 3 Noroeste 6 Noroeste 0 1012 -1.3 63
2018-01-13 03:00:00 6.8 2 Oeste 6 Oeste 0 1012.1 -1.6 61
2018-01-13 02:00:00 7.8 3 Sudoeste 7 Sudeste 0 1012.6 -1.2 59
2018-01-13 01:00:00 9.2 3 Nordeste 12 Sudoeste 0 1013.3 -0.6 54
2018-01-13 00:00:00 9.1 5 Sudeste 12 Oeste 0 1013.7 -0.2 54
2018-01-12 23:00:00 9 6 Noroeste 16 Noroeste 0 1013.8 0.1 53
2018-01-12 22:00:00 9.8 6 Oeste 16 Noroeste 0 1013.9 0.9 51
2018-01-12 21:00:00 9.3 5 Noroeste 10 Noroeste 0 1013.9 1.2 50
2018-01-12 20:00:00 10.3 5 Oeste 13 Noroeste 0 1013.7 1.2 47
2018-01-12 19:00:00 11.7 5 Oeste 14 Oeste 0 1013 0.7 42
2018-01-12 18:00:00 13.5 4 Oeste 19 Oeste 0 1012.7 0 39
2018-01-12 17:00:00 15.3 10 Oeste 20 Oeste 0 1012.5 -0.8 34
2018-01-12 16:00:00 17.2 6 Oeste 20 Oeste 0 1012.3 -2 30
2018-01-12 15:00:00 17 10 Oeste 28 Sur 0 1012.7 -1.8 29
2018-01-12 14:00:00 16.7 10 Oeste 19 Oeste 0 1013.3 -1.9 28
2018-01-12 13:00:00 16.1 9 Sudoeste 18 Oeste 0 1014.3 -0.2 30
2018-01-12 12:00:00 14.8 4 Sudoeste 9 Sur 0 1014.5 0.7 33
2018-01-12 11:00:00 12.2 3 Noroeste 15 Nordeste 0 1015.2 1.8 39
2018-01-12 10:00:00 9.9 4 Oeste 13 Noroeste 0 1014.5 1.3 48
2018-01-12 09:00:00 7.6 5 Noroeste 18 Noroeste 0 1013.8 0.8 53
2018-01-12 08:00:00 7.7 8 Noroeste 19 Noroeste 0 1013.4 0.8 52
2018-01-12 07:00:00 8.7 11 Noroeste 24 Noroeste 0 1013.2 0.2 50
2018-01-12 06:00:00 9.4 11 Noroeste 24 Noroeste 0 1013 0.3 47
2018-01-12 05:00:00 9.2 5 Oeste 24 Sudeste 0 1012.6 0.1 46
2018-01-12 04:00:00 10.4 9 Noroeste 31 Noroeste 0 1013 0.8 42
2018-01-12 03:00:00 10.1 8 Noroeste 28 Norte 0 1012.7 0.3 42
2018-01-12 02:00:00 10.5 6 Oeste 27 Norte 0 1012.5 0 41
2018-01-12 01:00:00 10.2 10 Noroeste 27 Noroeste 0 1012.2 0 42
2018-01-12 00:00:00 10.3 10 Noroeste 26 Noroeste 0 1012.4 1 42
2018-01-11 23:00:00 10.9 11 Oeste 28 Noroeste 0 1012.5 1.1 39
2018-01-11 22:00:00 11.5 13 Noroeste 40 Noroeste 0 1012.2 1.1 39
2018-01-11 21:00:00 11.3 14 Oeste 47 Noroeste 0 1011.4 1 41
2018-01-11 20:00:00 11.5 13 Oeste 30 Noroeste 0 1011.4 1.8 44
2018-01-11 19:00:00 11.8 9 Oeste 26 Noroeste 0 1011.1 2.1 43
2018-01-11 18:00:00 13 17 Noroeste 36 Noroeste 0 1010.4 1.6 35
2018-01-11 17:00:00 13.7 18 Noroeste 46 Oeste 0 1009.6 1.2 35
2018-01-11 16:00:00 14.4 18 Noroeste 51 Noroeste 0 1009 -0.4 38
2018-01-11 15:00:00 15.3 17 Noroeste 53 Noroeste 0 1008.8 -1.6 34
2018-01-11 14:00:00 14.9 22 Noroeste 55 Noroeste 0 1008.4 -2.7 35
2018-01-11 13:00:00 14.3 27 Noroeste 58 Noroeste 0 1009.4 -1 38
2018-01-11 12:00:00 13.4 25 Noroeste 62 Noroeste 0 1010.4 0.1 43
2018-01-11 11:00:00 13.1 22 Noroeste 49 Norte 0 1011.1 1.5 44
2018-01-11 10:00:00 11.8 13 Noroeste 43 Noroeste 0 1010.4 0.4 46
2018-01-11 09:00:00 10.8 13 Oeste 45 Oeste 0 1010.3 0.5 46
2018-01-11 08:00:00 10.4 15 Oeste 38 Oeste 0 1009.6 0.1 49
2018-01-11 07:00:00 10.4 14 Oeste 34 Oeste 0 1010 0.5 53
2018-01-11 06:00:00 10.7 18 Oeste 37 Oeste 0 1009.8 0.1 51
2018-01-11 05:00:00 11.2 15 Oeste 42 Oeste 0 1009.5 0.1 49
2018-01-11 04:00:00 11.7 15 Oeste 42 Oeste 0 1009.5 0.1 46
2018-01-11 03:00:00 12 12 Oeste 42 Sudoeste 0 1009.7 0.2 49
2018-01-11 02:00:00 12.4 15 Oeste 41 Oeste 0 1009.4 0.9 54
2018-01-11 01:00:00 13.2 18 Noroeste 37 Oeste 0 1009.4 0.6 54
2018-01-11 00:00:00 12 11 Noroeste 26 Oeste 0 1009.5 1 56
2018-01-10 23:00:00 11.4 5 Sudoeste 12 Sudoeste 0 1008.5 0 56
2018-01-10 22:00:00 11.6 8 Sudoeste 18 Sudoeste 0 1008.8 0.2 55
2018-01-10 21:00:00 12.8 10 Sudoeste 20 Sudoeste 0 1008.5 0.3 50
2018-01-10 20:00:00 13.2 8 Oeste 30 Oeste 0 1008.5 0.4 51
2018-01-10 19:00:00 14.8 17 Oeste 35 Oeste 0 1008.6 1 44
2018-01-10 18:00:00 15.2 15 Oeste 41 Noroeste 0 1008.2 0.7 43
2018-01-10 17:00:00 16.4 12 Oeste 34 Oeste 0 1008.1 0.7 45
2018-01-10 16:00:00 17.7 13 Oeste 32 Noroeste 0 1007.6 -0.2 42
2018-01-10 15:00:00 17.1 14 Oeste 31 Sudoeste 0 1007.5 -1.3 46
2018-01-10 14:00:00 16.2 12 Noroeste 35 Noroeste 0 1007.4 -1.6 51
2018-01-10 13:00:00 16 14 Oeste 28 Oeste 0 1007.8 -1.2 55
2018-01-10 12:00:00 15.5 10 Noroeste 23 Noroeste 0 1008.8 -0.1 61
2018-01-10 11:00:00 11.6 9 Sur 15 Sudoeste 0 1009 0.5 82
2018-01-10 10:00:00 9.1 4 Oeste 14 Oeste 0 1009 0.6 90
2018-01-10 09:00:00 8.4 5 Oeste 10 Oeste 0 1008.9 0.4 92
2018-01-10 08:00:00 8.3 3 Oeste 6 Oeste 0.2 1008.5 -0.2 92
2018-01-10 07:00:00 8.3 3 Oeste 9 Noroeste 0.4 1008.4 -0.7 92
2018-01-10 06:00:00 8.4 4 Noroeste 8 Noroeste 1.4 1008.5 -0.9 91
2018-01-10 05:00:00 8.4 5 Noroeste 12 Noroeste 0.2 1008.7 -1 87
2018-01-10 04:00:00 8.2 4 Noroeste 11 Oeste 0.8 1009.1 -1.1 86
2018-01-10 03:00:00 8.4 4 Oeste 7 Oeste 0 1009.4 -1.1 77
2018-01-10 02:00:00 8.5 3 Noroeste 5 Noroeste 0 1009.7 -1.4 73
2018-01-10 01:00:00 8.4 0 Calma 6 Oeste 0 1010.2 -0.9 61
2018-01-10 00:00:00 8.2 0 Calma 6 Noroeste 0 1010.5 -0.4 63
2018-01-09 23:00:00 7.6 3 Oeste 4 Oeste 0 1011.1 0.3 63
2018-01-09 22:00:00 8 3 Oeste 5 Oeste 0 1011.1 0.6 61
2018-01-09 21:00:00 8.5 3 Norte 7 Nordeste 0 1010.9 0.9 62
2018-01-09 20:00:00 9.1 3 Noroeste 4 Oeste 0 1010.8 1.4 63
2018-01-09 19:00:00 10.1 3 Norte 8 Sur 0 1010.5 1.3 58
2018-01-09 18:00:00 11.6 7 Sur 11 Sur 0 1010 0.9 52
2018-01-09 17:00:00 13 8 Sur 19 Sudoeste 0 1009.4 0 46
2018-01-09 16:00:00 13.8 10 Sudoeste 26 Sudoeste 0 1009.2 -0.5 43
2018-01-09 15:00:00 14.2 10 Sur 21 Sudoeste 0 1009.1 -1.3 43
2018-01-09 14:00:00 15.4 11 Sudoeste 23 Sur 0 1009.4 -1.1 40
2018-01-09 13:00:00 15.7 10 Sudoeste 23 Sur 0 1009.7 0.1 37
2018-01-09 12:00:00 14.3 9 Sudoeste 19 Sudoeste 0 1010.4 1.3 39
2018-01-09 11:00:00 10.3 3 Sudoeste 9 Oeste 0 1010.5 2.1 52
2018-01-09 10:00:00 6.6 5 Oeste 11 Oeste 0 1009.6 1.8 65
2018-01-09 09:00:00 3.8 4 Noroeste 9 Norte 0 1009.1 2.2 73
2018-01-09 08:00:00 3.5 4 Oeste 9 Oeste 0 1008.4 1.7 74
2018-01-09 07:00:00 4 4 Oeste 12 Noroeste 0 1007.8 1 71
2018-01-09 06:00:00 3.7 3 Noroeste 11 Noroeste 0 1006.9 0.8 72
2018-01-09 05:00:00 3.3 4 Noroeste 10 Oeste 0 1006.7 0.7 74
2018-01-09 04:00:00 3.6 3 Oeste 8 Oeste 0 1006.8 0.8 74
2018-01-09 03:00:00 3.9 5 Noroeste 10 Noroeste 0 1006.1 0.3 73
2018-01-09 02:00:00 3.9 4 Noroeste 11 Noroeste 0 1006 0.5 74
2018-01-09 01:00:00 4.4 6 Noroeste 10 Noroeste 0 1006 1.2 71
2018-01-09 00:00:00 4.6 3 Oeste 8 Noroeste 0 1005.8 1.2 69
2018-01-08 23:00:00 4.7 4 Oeste 7 Oeste 0 1005.5 1.5 69
2018-01-08 22:00:00 5.6 3 Noroeste 7 Norte 0 1004.8 1.4 67
2018-01-08 21:00:00 6.8 3 Noroeste 7 Norte 0 1004.6 2 66
2018-01-08 20:00:00 8 3 Noroeste 5 Noroeste 0 1004 2.1 70
2018-01-08 19:00:00 10.1 3 Sur 13 Sudoeste 0 1003.4 1.9 62
2018-01-08 18:00:00 11.3 7 Sur 15 Sur 0 1002.6 1.4 59
2018-01-08 17:00:00 12.5 6 Sudeste 16 Sur 0 1001.9 0.6 57
2018-01-08 16:00:00 14.2 8 Sur 19 Sur 0 1001.5 0.3 50
2018-01-08 15:00:00 14.4 9 Sudeste 18 Sur 0 1001.2 -0.5 48
2018-01-08 14:00:00 14.6 10 Sudeste 17 Sudeste 0 1001.3 -0.2 47
2018-01-08 13:00:00 13.9 6 Sur 15 Sur 0 1001.2 0.2 48
2018-01-08 12:00:00 12.5 3 Sur 8 Sur 0 1001.7 1.1 55
2018-01-08 11:00:00 9.9 2 Sudoeste 6 Noroeste 0 1001.5 1.4 63
2018-01-08 10:00:00 6.4 4 Noroeste 6 Noroeste 0 1001 1.5 75
2018-01-08 09:00:00 3.6 4 Noroeste 6 Noroeste 0 1000.6 1.6 83
2018-01-08 08:00:00 3.8 4 Noroeste 8 Norte 0 1000.1 1.5 82
2018-01-08 07:00:00 3.9 3 Noroeste 7 Noroeste 0 999.5 1.2 83
2018-01-08 06:00:00 3.8 4 Noroeste 7 Norte 0 999 1.2 82
2018-01-08 05:00:00 4.1 5 Norte 8 Norte 0 998.6 1.1 81
2018-01-08 04:00:00 4 3 Norte 5 Norte 0 998.3 0.5 81
2018-01-08 03:00:00 4.5 3 Noroeste 6 Noroeste 0 997.8 0 79
2018-01-08 02:00:00 5.4 2 Noroeste 4 Noroeste 0 997.5 0.2 75
2018-01-08 01:00:00 6.6 3 Noroeste 6 Noroeste 0 997.8 1.1 71
2018-01-08 00:00:00 7 4 Norte 10 Norte 0 997.8 1.2 70
2018-01-07 23:00:00 7.1 3 Norte 7 Norte 0 997.3 1 70
2018-01-07 22:00:00 8.8 5 Nordeste 12 Nordeste 0 996.7 1 63
2018-01-07 21:00:00 9.1 5 Norte 10 Nordeste 0 996.6 1.4 63
2018-01-07 20:00:00 10.1 4 Norte 6 Sudeste 0 996.3 1.7 62
2018-01-07 19:00:00 10.5 0 Calma 12 Sudeste 0 995.7 2 64
2018-01-07 18:00:00 11.1 5 Sur 15 Sudoeste 0 995.2 2.1 60
2018-01-07 17:00:00 12 7 Sur 18 Sur 0 994.6 1.5 53
2018-01-07 16:00:00 13 7 Sur 15 Sudeste 0 993.7 0.3 48
2018-01-07 15:00:00 14.2 6 Sudeste 14 Sudeste 0 993.1 -0.7 42
2018-01-07 14:00:00 14 5 Sudoeste 15 Sudeste 0 993.1 -0.3 41
2018-01-07 13:00:00 13.7 5 Sudeste 13 Sudeste 0 993.4 0.8 43
2018-01-07 12:00:00 11.7 4 Sudoeste 11 Sudoeste 0 993.8 2.5 50
2018-01-07 11:00:00 9.6 3 Oeste 8 Noroeste 0 993.4 2.8 59
2018-01-07 10:00:00 6.9 4 Sudoeste 7 Sur 0 992.6 2.8 72
2018-01-07 09:00:00 5 4 Norte 8 Noroeste 0 991.3 1.7 79
2018-01-07 08:00:00 5.1 3 Oeste 9 Noroeste 0 990.6 1.1 78
2018-01-07 07:00:00 6.4 5 Oeste 21 Noroeste 0 989.8 0.1 72
2018-01-07 06:00:00 6.5 8 Oeste 19 Noroeste 0 989.6 0.1 74
2018-01-07 05:00:00 6.9 4 Oeste 10 Noroeste 0 989.5 0.4 73
2018-01-07 04:00:00 6.7 5 Noroeste 12 Noroeste 0 989.7 0.3 68
2018-01-07 03:00:00 7.3 5 Noroeste 13 Oeste 0 989.5 0.4 66
2018-01-07 02:00:00 8.3 6 Sudoeste 17 Oeste 0 989.1 1.4 62
2018-01-07 01:00:00 8.9 10 Oeste 25 Oeste 0 989.4 2.4 59
2018-01-07 00:00:00 9.4 9 Oeste 34 Oeste 0 989.1 2.6 56
2018-01-06 23:00:00 9.8 8 Oeste 25 Noroeste 0 987.7 1.4 56
2018-01-06 22:00:00 10.3 8 Oeste 30 Noroeste 0 987 0.7 57
2018-01-06 21:00:00 11.7 12 Oeste 30 Oeste 0 986.5 0.4 63
2018-01-06 20:00:00 12.3 6 Sudoeste 24 Sur 0 986.3 0.6 69
2018-01-06 19:00:00 12.9 13 Sur 29 Sudoeste 0 986.3 0.3 64
2018-01-06 18:00:00 14.1 12 Sudoeste 27 Sur 0 986.1 -0.4 67
2018-01-06 17:00:00 14.5 12 Sudeste 27 Sudeste 0 985.7 -1.4 84
2018-01-06 16:00:00 14.4 10 Este 19 Nordeste 0 986 -1.9 80
2018-01-06 15:00:00 14.5 10 Nordeste 15 Este 0 986.5 -2.7 78
2018-01-06 14:00:00 15.2 6 Sudeste 14 Sudeste 0 987.1 -3 74
2018-01-06 13:00:00 15.1 5 Este 13 Sur 0 987.9 -2.8 73
2018-01-06 12:00:00 14.7 5 Nordeste 9 Nordeste 0 989.2 -1.6 73
2018-01-06 11:00:00 13 6 Nordeste 10 Nordeste 0 990.1 -1.2 78
2018-01-06 10:00:00 11.3 7 Norte 12 Nordeste 0 990.7 -0.7 80
2018-01-06 09:00:00 9.5 5 Norte 9 Norte 0 990.8 -1.2 80
2018-01-06 08:00:00 8.7 3 Norte 10 Norte 0 991.3 -1.8 79
2018-01-06 07:00:00 8.6 3 Norte 7 Nordeste 0 991.4 -2.8 89
2018-01-06 06:00:00 8.5 4 Noroeste 6 Noroeste 0 992 -2.9 86
2018-01-06 05:00:00 8 5 Norte 8 Norte 0 993.1 -2.9 83
2018-01-06 04:00:00 6.9 2 Noroeste 7 Noroeste 0 994.2 -2.7 80
2018-01-06 03:00:00 7.1 3 Noroeste 6 Noroeste 0 994.9 -2.9 78
2018-01-06 02:00:00 7.6 3 Noroeste 5 Noroeste 0 996 -2.2 76
2018-01-06 01:00:00 7.8 0 Calma 3 Oeste 0 996.9 -1.8 79
2018-01-06 00:00:00 8.5 3 Noroeste 4 Oeste 0 997.8 -1.4 77
2018-01-05 23:00:00 9.6 0 Calma 6 Norte 0 998.2 -1.4 76
2018-01-05 22:00:00 11.1 4 Norte 9 Norte 0 998.7 -1 81
2018-01-05 21:00:00 11.5 5 Norte 8 Norte 0 999.2 -0.5 83
2018-01-05 20:00:00 13.1 3 Oeste 12 Sudoeste 0 999.6 -0.3 85
2018-01-05 19:00:00 13.9 5 Sudoeste 22 Sudoeste 0 999.7 -0.3 78
2018-01-05 18:00:00 15 14 Sur 24 Sur 0 999.7 -1.1 72
2018-01-05 17:00:00 17.4 12 Sur 22 Sudeste 0 999.9 -1.8 62
2018-01-05 16:00:00 20.9 8 Oeste 22 Oeste 0 1000 -3 33
2018-01-05 15:00:00 21.1 9 Oeste 21 Oeste 0 1000.8 -3.6 33
2018-01-05 14:00:00 21.2 7 Oeste 20 Oeste 0 1001.7 -3.5 32
2018-01-05 13:00:00 20.4 7 Oeste 27 Oeste 0 1003 -2.7 34
2018-01-05 12:00:00 19.3 9 Oeste 27 Oeste 0 1004.4 -1.3 37
2018-01-05 11:00:00 17.1 12 Noroeste 23 Noroeste 0 1005.2 -0.8 43
2018-01-05 10:00:00 12.9 2 Sudoeste 7 Sur 0.4 1005.7 -0.4 61
2018-01-05 09:00:00 10.2 3 Noroeste 6 Este 0 1005.7 -0.3 71
2018-01-05 08:00:00 10.4 3 Sudeste 6 Sudeste 0 1006 -0.5 68
2018-01-05 07:00:00 12.8 2 Noroeste 26 Noroeste 0 1006.1 -1.5 58
2018-01-05 06:00:00 13.8 11 Noroeste 28 Noroeste 0 1006 -2.1 55
2018-01-05 05:00:00 13.2 11 Noroeste 21 Norte 0 1006.5 -2.2 57
2018-01-05 04:00:00 13.2 3 Noroeste 19 Noroeste 0 1007.6 -1.5 58
2018-01-05 03:00:00 14 5 Norte 25 Oeste 0 1008.1 -1.7 57
2018-01-05 02:00:00 15 11 Oeste 24 Oeste 0 1008.7 -1.5 56
2018-01-05 01:00:00 15.4 11 Oeste 29 Oeste 0 1009.1 -1.8 55
2018-01-05 00:00:00 16.3 16 Oeste 46 Oeste 0 1009.8 -1.6 53
2018-01-04 23:00:00 16.8 23 Oeste 46 Oeste 0 1010.2 -0.9 53
2018-01-04 22:00:00 17.2 15 Oeste 34 Noroeste 0 1010.9 -0.1 54
2018-01-04 21:00:00 17.8 11 Oeste 37 Oeste 0 1011.4 0.6 52
2018-01-04 20:00:00 18 14 Oeste 36 Noroeste 0 1011.1 0.1 52
2018-01-04 19:00:00 18.6 14 Oeste 31 Oeste 0 1011 -0.4 50
2018-01-04 18:00:00 20 12 Oeste 35 Oeste 0 1010.8 -0.7 44
2018-01-04 17:00:00 21.7 13 Oeste 37 Oeste 0 1011 -1.2 41
2018-01-04 16:00:00 22.6 17 Oeste 39 Noroeste 0 1011.4 -1.8 39
2018-01-04 15:00:00 23.6 14 Noroeste 40 Noroeste 0 1011.5 -2.8 36
2018-01-04 14:00:00 23.7 14 Oeste 31 Oeste 0 1012.2 -2.5 38
2018-01-04 13:00:00 23.7 14 Oeste 29 Oeste 0 1013.2 -1.7 38
2018-01-04 12:00:00 22.5 9 Oeste 21 Oeste 0 1014.3 -0.4 41
2018-01-04 11:00:00 19.7 9 Noroeste 22 Oeste 0 1014.7 -0.1 49
2018-01-04 10:00:00 16.3 3 Noroeste 14 Noroeste 0 1014.9 0 61
2018-01-04 09:00:00 13.7 5 Noroeste 11 Noroeste 0 1014.7 0 70
2018-01-04 08:00:00 14.7 5 Oeste 20 Oeste 0 1014.8 -0.3 66
2018-01-04 07:00:00 15.1 7 Oeste 15 Noroeste 0 1014.9 -0.5 64
2018-01-04 06:00:00 14.8 5 Oeste 14 Oeste 0 1014.7 -1 65
2018-01-04 05:00:00 14.3 5 Oeste 12 Oeste 0 1015.1 -1.3 68
2018-01-04 04:00:00 13.9 2 Sudoeste 11 Oeste 0 1015.4 -1.4 69
2018-01-04 03:00:00 14.8 3 Sudoeste 17 Oeste 0 1015.7 -1.7 65
2018-01-04 02:00:00 14.9 4 Oeste 14 Oeste 0 1016.4 -0.8 64
2018-01-04 01:00:00 15 5 Oeste 21 Noroeste 0 1016.8 -0.3 64
2018-01-04 00:00:00 17 12 Noroeste 27 Norte 0 1017.4 0.3 57
2018-01-03 23:00:00 16.8 10 Noroeste 21 Noroeste 0 1017.2 0.1 57
2018-01-03 22:00:00 16.4 10 Oeste 22 Sudoeste 0 1017.1 0.3 60
2018-01-03 21:00:00 16.7 9 Sudoeste 31 Oeste 0 1017.1 1 59
2018-01-03 20:00:00 16.7 16 Oeste 40 Noroeste 0 1017.1 0.8 59
2018-01-03 19:00:00 17.3 18 Noroeste 45 Noroeste 0 1016.8 0.2 57
2018-01-03 18:00:00 18.6 9 Oeste 33 Noroeste 0 1016.1 -0.5 52
2018-01-03 17:00:00 20.8 13 Oeste 32 Noroeste 0 1016.3 -0.8 45
2018-01-03 16:00:00 22.8 8 Noroeste 21 Noroeste 0 1016.6 -1.7 40
2018-01-03 15:00:00 24 5 Oeste 17 Oeste 0 1016.6 -2.5 37
2018-01-03 14:00:00 24.1 11 Oeste 27 Noroeste 0 1017.1 -3 35
2018-01-03 13:00:00 23.8 9 Noroeste 22 Noroeste 0 1018.3 -1.4 38
2018-01-03 12:00:00 21.9 10 Noroeste 23 Noroeste 0 1019.1 0.2 42
2018-01-03 11:00:00 19.1 12 Noroeste 22 Noroeste 0 1020.1 1.3 49
2018-01-03 10:00:00 17.1 4 Oeste 25 Noroeste 0 1019.7 1.3 55
2018-01-03 09:00:00 15.7 9 Noroeste 39 Norte 0 1018.9 1.1 58
2018-01-03 08:00:00 15.1 10 Oeste 24 Oeste 0 1018.8 1 60
2018-01-03 07:00:00 15.1 3 Nordeste 19 Norte 0 1018.4 0.6 59
2018-01-03 06:00:00 14.4 10 Norte 22 Norte 0 1017.8 -0.1 62
2018-01-03 05:00:00 12.8 4 Sudoeste 11 Sur 0 1017.8 -0.3 66
2018-01-03 04:00:00 13.5 3 Sudoeste 14 Noroeste 0 1017.8 -0.5 62
2018-01-03 03:00:00 15.8 8 Oeste 23 Oeste 0 1017.9 -0.8 54
2018-01-03 02:00:00 16.9 8 Noroeste 30 Noroeste 0 1018.1 -0.5 51
2018-01-03 01:00:00 16.9 12 Norte 30 Norte 0 1018.3 -0.2 50
2018-01-03 00:00:00 16.6 13 Noroeste 30 Norte 0 1018.7 0.7 48
2018-01-02 23:00:00 16.8 12 Noroeste 27 Norte 0 1018.6 0.2 45
2018-01-02 22:00:00 16.7 12 Noroeste 24 Norte 0 1018.5 0.3 49
2018-01-02 21:00:00 16.5 7 Noroeste 19 Oeste 0 1018 -0.1 48
2018-01-02 20:00:00 17 8 Noroeste 40 Noroeste 0 1018.4 0.5 46
2018-01-02 19:00:00 18 21 Noroeste 41 Noroeste 0 1018.2 0.8 43
2018-01-02 18:00:00 18.2 4 Noroeste 26 Noroeste 0 1018.1 0.3 41
2018-01-02 17:00:00 19.5 8 Oeste 37 Noroeste 0 1017.9 0.1 37
2018-01-02 16:00:00 20.4 17 Noroeste 31 Noroeste 0 1017.4 -1.5 34
2018-01-02 15:00:00 19.6 17 Noroeste 44 Norte 0 1017.8 -2.3 35
2018-01-02 14:00:00 19.7 18 Noroeste 38 Noroeste 0 1017.8 -2.2 33
2018-01-02 13:00:00 19.3 12 Noroeste 23 Noroeste 0 1018.9 -1.2 35
2018-01-02 12:00:00 17.7 5 Noroeste 20 Oeste 0 1020.1 0.7 39
2018-01-02 11:00:00 16 10 Sudoeste 22 Oeste 0 1020 0.5 44
2018-01-02 10:00:00 14.4 12 Oeste 39 Noroeste 0 1020.1 1 50
2018-01-02 09:00:00 13.1 12 Oeste 33 Sudoeste 0 1019.4 0.9 54
2018-01-02 08:00:00 12.8 14 Noroeste 56 Noroeste 0 1019.5 0.3 56
2018-01-02 07:00:00 12.6 18 Noroeste 52 Noroeste 0 1019.1 -1.1 58
2018-01-02 06:00:00 12.6 21 Noroeste 57 Oeste 0 1018.5 -1.7 59
2018-01-02 05:00:00 12.8 20 Noroeste 53 Oeste 0 1019.2 -0.6 59
2018-01-02 04:00:00 13.2 17 Oeste 37 Oeste 0 1020.2 -0.1 57
2018-01-02 03:00:00 13.3 15 Oeste 39 Oeste 0 1020.2 -0.1 55
2018-01-02 02:00:00 13.7 15 Oeste 32 Noroeste 0 1019.8 -0.2 51
2018-01-02 01:00:00 13.6 15 Oeste 30 Oeste 0 1020.3 0.4 49
2018-01-02 00:00:00 14.1 10 Oeste 40 Oeste 0 1020.3 0.2 45
2018-01-01 23:00:00 14.4 11 Oeste 31 Oeste 0 1020 0.5 40
2018-01-01 22:00:00 14.5 9 Oeste 30 Oeste 0 1019.9 1.5 35
2018-01-01 21:00:00 15.2 12 Oeste 29 Oeste 0 1020.1 2 29
2018-01-01 20:00:00 15.6 12 Oeste 32 Oeste 0 1019.5 1 24
2018-01-01 19:00:00 15 5 Sudoeste 15 Sudoeste 0 1018.4 0.1 33
2018-01-01 18:00:00 16.8 5 Sudoeste 23 Sudoeste 0 1018.1 -1.1 27
2018-01-01 17:00:00 18.7 10 Sudoeste 25 Sudoeste 0 1018.5 -1.4 22
2018-01-01 16:00:00 18.9 14 Sudoeste 30 Sur 0 1018.3 -2.6 24
2018-01-01 15:00:00 21 10 Oeste 30 Oeste 0 1019.2 -2.7 16
2018-01-01 14:00:00 19.6 12 Noroeste 33 Oeste 0 1019.9 -2.8 18
2018-01-01 13:00:00 19.4 13 Oeste 25 Oeste 0 1020.9 -1.3 19
2018-01-01 12:00:00 17.5 6 Norte 16 Noroeste 0 1021.9 0.1 24
2018-01-01 11:00:00 14.9 10 Noroeste 20 Noroeste 0 1022.7 1 30
2018-01-01 10:00:00 12.1 6 Sur 21 Noroeste 0 1022.2 0.8 41
2018-01-01 09:00:00 9.8 8 Oeste 16 Oeste 0 1021.8 0.8 43
2018-01-01 08:00:00 10.3 4 Norte 15 Oeste 0 1021.7 1.8 40
2018-01-01 07:00:00 10.1 5 Oeste 19 Noroeste 0 1021.4 1.2 43
2018-01-01 06:00:00 11.4 3 Nordeste 30 Noroeste 0 1021 1.3 36
2018-01-01 05:00:00 12.4 15 Noroeste 51 Noroeste 0 1019.9 1.6 36
2018-01-01 04:00:00 12.8 22 Noroeste 45 Noroeste 0 1020.2 2.1 40
2018-01-01 03:00:00 13.3 17 Oeste 41 Oeste 0 1019.7 2.4 43
2018-01-01 02:00:00 14 15 Oeste 35 Oeste 0 1018.3 2.6 45
2018-01-01 01:00:00 14.8 14 Oeste 50 Noroeste 0 1018.1 3.8 46
2018-01-01 00:00:00 16.2 19 Oeste 59 Oeste 0 1017.3 4.1 40
2017-12-31 23:00:00 17.2 16 Oeste 38 Noroeste 0 1015.7 3.1 48
2017-12-31 22:00:00 16.6 5 Oeste 26 Sudoeste 0 1014.3 3 49
2017-12-31 21:00:00 16.9 10 Oeste 26 Sudoeste 0 1013.2 2.3 47
2017-12-31 20:00:00 17.4 8 Noroeste 30 Noroeste 0 1012.6 2 46
2017-12-31 19:00:00 17.4 13 Noroeste 32 Noroeste 0 1011.3 1.1 46
2017-12-31 18:00:00 17.5 11 Noroeste 28 Noroeste 0 1010.9 0.6 47
2017-12-31 17:00:00 18.2 9 Noroeste 23 Noroeste 0 1010.6 -0.2 43
2017-12-31 16:00:00 17.1 12 Sudoeste 21 Sudoeste 0 1010.2 -1.7 51
2017-12-31 15:00:00 18.5 8 Sudoeste 19 Sudoeste 0 1010.3 -2.8 48
2017-12-31 14:00:00 17.6 9 Sur 17 Sur 0 1010.8 -2.7 49
2017-12-31 13:00:00 17.2 6 Sur 11 Sur 0 1011.9 -1.8 52
2017-12-31 12:00:00 15.5 4 Sur 8 Sudoeste 0 1013.1 -0.5 57
2017-12-31 11:00:00 13 0 Calma 6 Sudoeste 0 1013.5 -0.2 64
2017-12-31 10:00:00 11.2 3 Oeste 10 Noroeste 0 1013.7 0.2 68
2017-12-31 09:00:00 8.6 4 Noroeste 8 Noroeste 0 1013.6 0.1 73
2017-12-31 08:00:00 8 4 Noroeste 7 Oeste 0 1013.7 -0.2 76
2017-12-31 07:00:00 8.1 4 Noroeste 7 Noroeste 0 1013.5 -0.7 71
2017-12-31 06:00:00 8.3 3 Noroeste 8 Noroeste 0 1013.5 -0.8 69
2017-12-31 05:00:00 8.7 4 Noroeste 10 Noroeste 0 1013.9 -0.9 67
2017-12-31 04:00:00 8.6 2 Oeste 6 Norte 0 1014.2 -1 71
2017-12-31 03:00:00 9.6 5 Norte 8 Norte 0 1014.3 -0.9 69
2017-12-31 02:00:00 9.8 4 Noroeste 7 Norte 0 1014.8 -0.5 68
2017-12-31 01:00:00 10.1 3 Oeste 6 Noroeste 0 1015.2 -0.1 66